sensor_id;sensor_type;location;lat;lon;timestamp;P1;durP1;ratioP1;P2;durP2;ratioP2
37221;SDS011;23119;51.842;-2.230;2022-11-20T00:01:29;5.45;;;1.20;;
37221;SDS011;23119;51.842;-2.230;2022-11-20T00:04:00;6.70;;;1.63;;
37221;SDS011;23119;51.842;-2.230;2022-11-20T00:06:29;9.85;;;1.33;;
37221;SDS011;23119;51.842;-2.230;2022-11-20T00:08:55;11.60;;;2.08;;
37221;SDS011;23119;51.842;-2.230;2022-11-20T00:11:26;10.98;;;2.78;;
37221;SDS011;23119;51.842;-2.230;2022-11-20T00:13:56;5.70;;;1.52;;
37221;SDS011;23119;51.842;-2.230;2022-11-20T00:16:27;6.85;;;1.77;;
37221;SDS011;23119;51.842;-2.230;2022-11-20T00:18:55;6.05;;;1.60;;
37221;SDS011;23119;51.842;-2.230;2022-11-20T00:21:24;9.43;;;2.05;;
37221;SDS011;23119;51.842;-2.230;2022-11-20T00:23:54;8.90;;;1.63;;
37221;SDS011;23119;51.842;-2.230;2022-11-20T00:26:23;11.00;;;1.90;;
37221;SDS011;23119;51.842;-2.230;2022-11-20T00:28:54;5.25;;;2.20;;
37221;SDS011;23119;51.842;-2.230;2022-11-20T00:31:28;5.75;;;1.27;;
37221;SDS011;23119;51.842;-2.230;2022-11-20T00:33:54;2.17;;;0.90;;
37221;SDS011;23119;51.842;-2.230;2022-11-20T00:36:22;5.40;;;1.35;;
37221;SDS011;23119;51.842;-2.230;2022-11-20T00:38:55;4.30;;;1.20;;
37221;SDS011;23119;51.842;-2.230;2022-11-20T00:41:25;5.13;;;1.05;;
37221;SDS011;23119;51.842;-2.230;2022-11-20T00:43:52;3.35;;;0.80;;
37221;SDS011;23119;51.842;-2.230;2022-11-20T00:46:22;5.35;;;0.95;;
37221;SDS011;23119;51.842;-2.230;2022-11-20T00:48:51;2.63;;;0.70;;
37221;SDS011;23119;51.842;-2.230;2022-11-20T00:51:21;4.03;;;1.00;;
37221;SDS011;23119;51.842;-2.230;2022-11-20T00:53:48;5.20;;;0.93;;
37221;SDS011;23119;51.842;-2.230;2022-11-20T00:56:17;4.30;;;1.10;;
37221;SDS011;23119;51.842;-2.230;2022-11-20T00:58:44;3.63;;;1.20;;
37221;SDS011;23119;51.842;-2.230;2022-11-20T01:01:19;7.10;;;1.45;;
37221;SDS011;23119;51.842;-2.230;2022-11-20T01:03:57;9.63;;;1.58;;
37221;SDS011;23119;51.842;-2.230;2022-11-20T01:06:32;8.05;;;1.20;;
37221;SDS011;23119;51.842;-2.230;2022-11-20T01:09:04;5.80;;;1.48;;
37221;SDS011;23119;51.842;-2.230;2022-11-20T01:11:39;6.75;;;1.80;;
37221;SDS011;23119;51.842;-2.230;2022-11-20T01:14:10;6.65;;;1.42;;
37221;SDS011;23119;51.842;-2.230;2022-11-20T01:16:42;5.05;;;1.20;;
37221;SDS011;23119;51.842;-2.230;2022-11-20T01:19:20;5.35;;;1.45;;
37221;SDS011;23119;51.842;-2.230;2022-11-20T01:21:48;4.63;;;1.10;;
37221;SDS011;23119;51.842;-2.230;2022-11-20T01:24:16;6.13;;;1.35;;
37221;SDS011;23119;51.842;-2.230;2022-11-20T01:26:47;6.53;;;1.40;;
37221;SDS011;23119;51.842;-2.230;2022-11-20T01:29:16;4.45;;;1.20;;
37221;SDS011;23119;51.842;-2.230;2022-11-20T01:31:43;8.30;;;1.60;;
37221;SDS011;23119;51.842;-2.230;2022-11-20T01:34:20;6.47;;;1.75;;
37221;SDS011;23119;51.842;-2.230;2022-11-20T01:36:47;6.32;;;1.30;;
37221;SDS011;23119;51.842;-2.230;2022-11-20T01:39:14;7.93;;;1.80;;
37221;SDS011;23119;51.842;-2.230;2022-11-20T01:41:48;6.38;;;1.30;;
37221;SDS011;23119;51.842;-2.230;2022-11-20T01:50:03;3.25;;;1.10;;
37221;SDS011;23119;51.842;-2.230;2022-11-20T01:52:50;5.13;;;1.10;;
37221;SDS011;23119;51.842;-2.230;2022-11-20T01:55:23;4.03;;;0.95;;
37221;SDS011;23119;51.842;-2.230;2022-11-20T01:57:54;2.75;;;0.95;;
37221;SDS011;23119;51.842;-2.230;2022-11-20T02:00:20;2.22;;;1.05;;
37221;SDS011;23119;51.842;-2.230;2022-11-20T02:03:02;4.32;;;0.88;;
37221;SDS011;23119;51.842;-2.230;2022-11-20T02:05:37;3.70;;;1.00;;
37221;SDS011;23119;51.842;-2.230;2022-11-20T02:08:14;2.95;;;1.10;;
37221;SDS011;23119;51.842;-2.230;2022-11-20T02:10:41;4.43;;;0.90;;
37221;SDS011;23119;51.842;-2.230;2022-11-20T02:13:09;5.05;;;1.00;;
37221;SDS011;23119;51.842;-2.230;2022-11-20T02:15:57;3.35;;;0.90;;
37221;SDS011;23119;51.842;-2.230;2022-11-20T02:18:23;2.65;;;0.55;;
37221;SDS011;23119;51.842;-2.230;2022-11-20T02:20:56;1.83;;;0.80;;
37221;SDS011;23119;51.842;-2.230;2022-11-20T02:26:02;2.05;;;0.70;;
37221;SDS011;23119;51.842;-2.230;2022-11-20T02:28:34;2.95;;;0.60;;
37221;SDS011;23119;51.842;-2.230;2022-11-20T02:31:05;2.15;;;0.50;;
37221;SDS011;23119;51.842;-2.230;2022-11-20T02:33:33;2.65;;;0.80;;
37221;SDS011;23119;51.842;-2.230;2022-11-20T02:36:04;3.63;;;0.70;;
37221;SDS011;23119;51.842;-2.230;2022-11-20T02:38:30;3.03;;;0.47;;
37221;SDS011;23119;51.842;-2.230;2022-11-20T02:40:59;2.67;;;0.63;;
37221;SDS011;23119;51.842;-2.230;2022-11-20T02:43:25;1.00;;;0.50;;
37221;SDS011;23119;51.842;-2.230;2022-11-20T02:45:56;1.88;;;0.50;;
37221;SDS011;23119;51.842;-2.230;2022-11-20T02:48:21;1.33;;;0.40;;
37221;SDS011;23119;51.842;-2.230;2022-11-20T02:50:47;0.60;;;0.30;;
37221;SDS011;23119;51.842;-2.230;2022-11-20T02:53:13;0.95;;;0.40;;
37221;SDS011;23119;51.842;-2.230;2022-11-20T02:55:42;0.95;;;0.32;;
37221;SDS011;23119;51.842;-2.230;2022-11-20T02:58:08;0.40;;;0.20;;
37221;SDS011;23119;51.842;-2.230;2022-11-20T03:00:36;2.00;;;0.30;;
37221;SDS011;23119;51.842;-2.230;2022-11-20T03:03:02;2.15;;;0.20;;
37221;SDS011;23119;51.842;-2.230;2022-11-20T03:05:28;2.72;;;1.17;;
37221;SDS011;23119;51.842;-2.230;2022-11-20T03:07:54;0.85;;;0.30;;
37221;SDS011;23119;51.842;-2.230;2022-11-20T03:10:24;0.93;;;0.30;;
37221;SDS011;23119;51.842;-2.230;2022-11-20T03:12:54;1.50;;;0.30;;
37221;SDS011;23119;51.842;-2.230;2022-11-20T03:15:23;0.50;;;0.20;;
37221;SDS011;23119;51.842;-2.230;2022-11-20T03:17:49;0.60;;;0.20;;
37221;SDS011;23119;51.842;-2.230;2022-11-20T03:20:17;1.30;;;0.20;;
37221;SDS011;23119;51.842;-2.230;2022-11-20T03:22:43;0.90;;;0.30;;
37221;SDS011;23119;51.842;-2.230;2022-11-20T03:25:09;0.30;;;0.20;;
37221;SDS011;23119;51.842;-2.230;2022-11-20T03:27:35;1.95;;;0.30;;
37221;SDS011;23119;51.842;-2.230;2022-11-20T03:30:03;0.38;;;0.20;;
37221;SDS011;23119;51.842;-2.230;2022-11-20T03:32:33;0.95;;;0.75;;
37221;SDS011;23119;51.842;-2.230;2022-11-20T03:34:59;0.80;;;0.30;;
37221;SDS011;23119;51.842;-2.230;2022-11-20T03:37:25;0.95;;;0.20;;
37221;SDS011;23119;51.842;-2.230;2022-11-20T03:39:57;0.80;;;0.10;;
37221;SDS011;23119;51.842;-2.230;2022-11-20T03:42:23;1.77;;;0.20;;
37221;SDS011;23119;51.842;-2.230;2022-11-20T03:45:07;0.40;;;0.10;;
37221;SDS011;23119;51.842;-2.230;2022-11-20T03:47:34;2.30;;;0.20;;
37221;SDS011;23119;51.842;-2.230;2022-11-20T03:49:59;0.40;;;0.20;;
37221;SDS011;23119;51.842;-2.230;2022-11-20T03:52:26;0.38;;;0.20;;
37221;SDS011;23119;51.842;-2.230;2022-11-20T03:54:56;0.57;;;0.17;;
37221;SDS011;23119;51.842;-2.230;2022-11-20T03:57:22;0.30;;;0.10;;
37221;SDS011;23119;51.842;-2.230;2022-11-20T03:59:47;0.25;;;0.17;;
37221;SDS011;23119;51.842;-2.230;2022-11-20T04:02:13;0.98;;;0.20;;
37221;SDS011;23119;51.842;-2.230;2022-11-20T04:04:39;0.93;;;0.10;;
37221;SDS011;23119;51.842;-2.230;2022-11-20T04:07:07;0.55;;;0.20;;
37221;SDS011;23119;51.842;-2.230;2022-11-20T04:09:33;1.17;;;0.15;;
37221;SDS011;23119;51.842;-2.230;2022-11-20T04:11:59;0.63;;;0.30;;
37221;SDS011;23119;51.842;-2.230;2022-11-20T04:14:24;0.95;;;0.30;;
37221;SDS011;23119;51.842;-2.230;2022-11-20T04:16:50;0.40;;;0.20;;
37221;SDS011;23119;51.842;-2.230;2022-11-20T04:19:16;0.40;;;0.20;;
37221;SDS011;23119;51.842;-2.230;2022-11-20T04:21:43;0.85;;;0.52;;
37221;SDS011;23119;51.842;-2.230;2022-11-20T04:24:12;1.05;;;0.20;;
37221;SDS011;23119;51.842;-2.230;2022-11-20T04:26:40;0.90;;;0.30;;
37221;SDS011;23119;51.842;-2.230;2022-11-20T04:29:10;1.90;;;0.30;;
37221;SDS011;23119;51.842;-2.230;2022-11-20T04:31:36;1.67;;;0.20;;
37221;SDS011;23119;51.842;-2.230;2022-11-20T04:34:05;0.80;;;0.30;;
37221;SDS011;23119;51.842;-2.230;2022-11-20T04:36:32;0.63;;;0.30;;
37221;SDS011;23119;51.842;-2.230;2022-11-20T04:38:59;0.70;;;0.30;;
37221;SDS011;23119;51.842;-2.230;2022-11-20T04:41:35;3.40;;;0.20;;
37221;SDS011;23119;51.842;-2.230;2022-11-20T04:44:01;0.40;;;0.28;;
37221;SDS011;23119;51.842;-2.230;2022-11-20T04:46:29;0.90;;;0.40;;
37221;SDS011;23119;51.842;-2.230;2022-11-20T04:48:56;0.82;;;0.40;;
37221;SDS011;23119;51.842;-2.230;2022-11-20T04:51:25;2.28;;;0.50;;
37221;SDS011;23119;51.842;-2.230;2022-11-20T04:53:52;0.63;;;0.30;;
37221;SDS011;23119;51.842;-2.230;2022-11-20T04:56:17;1.33;;;0.50;;
37221;SDS011;23119;51.842;-2.230;2022-11-20T04:58:46;1.75;;;0.50;;
37221;SDS011;23119;51.842;-2.230;2022-11-20T05:01:16;2.45;;;0.60;;
37221;SDS011;23119;51.842;-2.230;2022-11-20T05:03:44;1.23;;;0.63;;
37221;SDS011;23119;51.842;-2.230;2022-11-20T05:06:17;1.95;;;0.80;;
37221;SDS011;23119;51.842;-2.230;2022-11-20T05:08:47;2.70;;;0.98;;
37221;SDS011;23119;51.842;-2.230;2022-11-20T05:11:16;2.97;;;0.90;;
37221;SDS011;23119;51.842;-2.230;2022-11-20T05:13:45;4.53;;;1.33;;
37221;SDS011;23119;51.842;-2.230;2022-11-20T05:16:12;1.58;;;0.80;;
37221;SDS011;23119;51.842;-2.230;2022-11-20T05:18:40;2.92;;;1.08;;
37221;SDS011;23119;51.842;-2.230;2022-11-20T05:21:07;2.35;;;1.40;;
37221;SDS011;23119;51.842;-2.230;2022-11-20T05:23:34;3.92;;;1.63;;
37221;SDS011;23119;51.842;-2.230;2022-11-20T05:26:03;4.10;;;1.80;;
37221;SDS011;23119;51.842;-2.230;2022-11-20T05:28:32;6.32;;;2.65;;
37221;SDS011;23119;51.842;-2.230;2022-11-20T05:31:12;5.55;;;1.70;;
37221;SDS011;23119;51.842;-2.230;2022-11-20T05:33:43;5.22;;;2.47;;
37221;SDS011;23119;51.842;-2.230;2022-11-20T05:36:12;5.75;;;2.40;;
37221;SDS011;23119;51.842;-2.230;2022-11-20T05:38:38;5.88;;;2.75;;
37221;SDS011;23119;51.842;-2.230;2022-11-20T05:41:07;5.93;;;2.42;;
37221;SDS011;23119;51.842;-2.230;2022-11-20T05:43:37;5.40;;;2.03;;
37221;SDS011;23119;51.842;-2.230;2022-11-20T05:46:04;10.73;;;2.15;;
37221;SDS011;23119;51.842;-2.230;2022-11-20T05:48:31;6.38;;;2.50;;
37221;SDS011;23119;51.842;-2.230;2022-11-20T05:51:02;7.18;;;1.80;;
37221;SDS011;23119;51.842;-2.230;2022-11-20T05:53:32;9.32;;;1.30;;
37221;SDS011;23119;51.842;-2.230;2022-11-20T05:56:01;10.00;;;2.17;;
37221;SDS011;23119;51.842;-2.230;2022-11-20T05:58:29;9.20;;;2.15;;
37221;SDS011;23119;51.842;-2.230;2022-11-20T06:01:02;7.60;;;1.73;;
37221;SDS011;23119;51.842;-2.230;2022-11-20T06:03:39;6.70;;;1.35;;
37221;SDS011;23119;51.842;-2.230;2022-11-20T06:06:07;7.57;;;1.42;;
37221;SDS011;23119;51.842;-2.230;2022-11-20T06:08:34;9.20;;;1.90;;
37221;SDS011;23119;51.842;-2.230;2022-11-20T06:11:04;10.88;;;1.95;;
37221;SDS011;23119;51.842;-2.230;2022-11-20T06:13:30;11.13;;;2.72;;
37221;SDS011;23119;51.842;-2.230;2022-11-20T06:15:58;9.63;;;3.13;;
37221;SDS011;23119;51.842;-2.230;2022-11-20T06:18:25;8.57;;;2.40;;
37221;SDS011;23119;51.842;-2.230;2022-11-20T06:21:30;3.28;;;1.63;;
37221;SDS011;23119;51.842;-2.230;2022-11-20T06:26:19;14.68;;;2.25;;
37221;SDS011;23119;51.842;-2.230;2022-11-20T06:28:50;11.32;;;1.77;;
37221;SDS011;23119;51.842;-2.230;2022-11-20T06:31:18;10.05;;;2.08;;
37221;SDS011;23119;51.842;-2.230;2022-11-20T06:33:47;9.00;;;1.10;;
37221;SDS011;23119;51.842;-2.230;2022-11-20T06:36:18;11.68;;;1.95;;
37221;SDS011;23119;51.842;-2.230;2022-11-20T06:38:45;18.30;;;1.38;;
37221;SDS011;23119;51.842;-2.230;2022-11-20T06:41:22;10.18;;;1.25;;
37221;SDS011;23119;51.842;-2.230;2022-11-20T06:43:48;10.38;;;1.02;;
37221;SDS011;23119;51.842;-2.230;2022-11-20T06:46:18;10.48;;;1.33;;
37221;SDS011;23119;51.842;-2.230;2022-11-20T06:48:45;6.72;;;1.10;;
37221;SDS011;23119;51.842;-2.230;2022-11-20T06:51:11;8.45;;;1.20;;
37221;SDS011;23119;51.842;-2.230;2022-11-20T06:53:40;4.82;;;0.90;;
37221;SDS011;23119;51.842;-2.230;2022-11-20T06:56:06;14.02;;;2.42;;
37221;SDS011;23119;51.842;-2.230;2022-11-20T06:58:33;17.65;;;2.50;;
37221;SDS011;23119;51.842;-2.230;2022-11-20T07:01:03;9.57;;;1.23;;
37221;SDS011;23119;51.842;-2.230;2022-11-20T07:03:39;14.82;;;1.08;;
37221;SDS011;23119;51.842;-2.230;2022-11-20T07:06:05;13.57;;;1.27;;
37221;SDS011;23119;51.842;-2.230;2022-11-20T07:08:34;14.90;;;1.10;;
37221;SDS011;23119;51.842;-2.230;2022-11-20T07:11:00;10.02;;;0.90;;
37221;SDS011;23119;51.842;-2.230;2022-11-20T07:13:35;6.82;;;1.02;;
37221;SDS011;23119;51.842;-2.230;2022-11-20T07:16:03;13.82;;;1.27;;
37221;SDS011;23119;51.842;-2.230;2022-11-20T07:18:34;18.42;;;1.33;;
37221;SDS011;23119;51.842;-2.230;2022-11-20T07:21:07;18.77;;;1.88;;
37221;SDS011;23119;51.842;-2.230;2022-11-20T07:23:35;8.93;;;0.75;;
37221;SDS011;23119;51.842;-2.230;2022-11-20T07:26:08;16.73;;;1.05;;
37221;SDS011;23119;51.842;-2.230;2022-11-20T07:28:38;8.63;;;0.90;;
37221;SDS011;23119;51.842;-2.230;2022-11-20T07:31:04;13.98;;;1.50;;
37221;SDS011;23119;51.842;-2.230;2022-11-20T07:33:31;18.55;;;1.70;;
37221;SDS011;23119;51.842;-2.230;2022-11-20T07:36:03;14.60;;;1.02;;
37221;SDS011;23119;51.842;-2.230;2022-11-20T07:38:32;17.35;;;1.38;;
37221;SDS011;23119;51.842;-2.230;2022-11-20T07:40:58;12.85;;;1.25;;
37221;SDS011;23119;51.842;-2.230;2022-11-20T07:43:27;11.95;;;1.52;;
37221;SDS011;23119;51.842;-2.230;2022-11-20T07:45:56;19.60;;;2.22;;
37221;SDS011;23119;51.842;-2.230;2022-11-20T07:48:23;16.55;;;1.02;;
37221;SDS011;23119;51.842;-2.230;2022-11-20T07:50:53;16.52;;;1.45;;
37221;SDS011;23119;51.842;-2.230;2022-11-20T07:53:27;20.73;;;1.30;;
37221;SDS011;23119;51.842;-2.230;2022-11-20T07:55:52;17.15;;;2.78;;
37221;SDS011;23119;51.842;-2.230;2022-11-20T07:58:19;16.40;;;1.27;;
37221;SDS011;23119;51.842;-2.230;2022-11-20T08:00:48;17.73;;;1.52;;
37221;SDS011;23119;51.842;-2.230;2022-11-20T08:03:17;18.38;;;1.33;;
37221;SDS011;23119;51.842;-2.230;2022-11-20T08:05:43;15.48;;;1.40;;
37221;SDS011;23119;51.842;-2.230;2022-11-20T08:08:08;21.75;;;1.40;;
37221;SDS011;23119;51.842;-2.230;2022-11-20T08:10:36;17.58;;;1.50;;
37221;SDS011;23119;51.842;-2.230;2022-11-20T08:13:08;12.70;;;1.17;;
37221;SDS011;23119;51.842;-2.230;2022-11-20T08:15:52;19.75;;;1.27;;
37221;SDS011;23119;51.842;-2.230;2022-11-20T08:18:20;14.23;;;1.30;;
37221;SDS011;23119;51.842;-2.230;2022-11-20T08:20:46;20.30;;;1.77;;
37221;SDS011;23119;51.842;-2.230;2022-11-20T08:23:14;19.52;;;2.95;;
37221;SDS011;23119;51.842;-2.230;2022-11-20T08:25:40;15.98;;;1.60;;
37221;SDS011;23119;51.842;-2.230;2022-11-20T08:28:09;23.17;;;2.10;;
37221;SDS011;23119;51.842;-2.230;2022-11-20T08:30:43;15.60;;;1.60;;
37221;SDS011;23119;51.842;-2.230;2022-11-20T08:33:14;19.00;;;2.03;;
37221;SDS011;23119;51.842;-2.230;2022-11-20T08:35:43;21.42;;;1.52;;
37221;SDS011;23119;51.842;-2.230;2022-11-20T08:38:09;23.65;;;1.65;;
37221;SDS011;23119;51.842;-2.230;2022-11-20T08:40:37;18.10;;;1.70;;
37221;SDS011;23119;51.842;-2.230;2022-11-20T08:43:02;19.98;;;1.42;;
37221;SDS011;23119;51.842;-2.230;2022-11-20T08:45:29;16.08;;;2.17;;
37221;SDS011;23119;51.842;-2.230;2022-11-20T08:48:03;19.08;;;2.05;;
37221;SDS011;23119;51.842;-2.230;2022-11-20T08:50:29;17.67;;;1.88;;
37221;SDS011;23119;51.842;-2.230;2022-11-20T08:53:01;13.27;;;1.13;;
37221;SDS011;23119;51.842;-2.230;2022-11-20T08:55:30;16.30;;;2.13;;
37221;SDS011;23119;51.842;-2.230;2022-11-20T09:00:31;13.50;;;1.02;;
37221;SDS011;23119;51.842;-2.230;2022-11-20T09:03:01;16.23;;;1.65;;
37221;SDS011;23119;51.842;-2.230;2022-11-20T09:05:27;18.52;;;2.15;;
37221;SDS011;23119;51.842;-2.230;2022-11-20T09:07:57;13.20;;;1.45;;
37221;SDS011;23119;51.842;-2.230;2022-11-20T09:10:23;18.45;;;1.60;;
37221;SDS011;23119;51.842;-2.230;2022-11-20T09:12:54;16.77;;;1.30;;
37221;SDS011;23119;51.842;-2.230;2022-11-20T09:15:25;8.95;;;1.00;;
37221;SDS011;23119;51.842;-2.230;2022-11-20T09:17:59;16.80;;;2.08;;
37221;SDS011;23119;51.842;-2.230;2022-11-20T09:20:29;12.60;;;1.42;;
37221;SDS011;23119;51.842;-2.230;2022-11-20T09:22:55;14.05;;;1.55;;
37221;SDS011;23119;51.842;-2.230;2022-11-20T09:25:24;13.23;;;1.40;;
37221;SDS011;23119;51.842;-2.230;2022-11-20T09:27:59;18.08;;;1.67;;
37221;SDS011;23119;51.842;-2.230;2022-11-20T09:30:26;7.50;;;1.23;;
37221;SDS011;23119;51.842;-2.230;2022-11-20T09:32:57;10.88;;;1.17;;
37221;SDS011;23119;51.842;-2.230;2022-11-20T09:35:23;11.48;;;1.48;;
37221;SDS011;23119;51.842;-2.230;2022-11-20T09:37:48;10.55;;;1.10;;
37221;SDS011;23119;51.842;-2.230;2022-11-20T09:40:21;13.02;;;1.27;;
37221;SDS011;23119;51.842;-2.230;2022-11-20T09:45:30;14.75;;;1.17;;
37221;SDS011;23119;51.842;-2.230;2022-11-20T09:53:37;14.50;;;1.52;;
37221;SDS011;23119;51.842;-2.230;2022-11-20T09:56:30;11.35;;;1.70;;
37221;SDS011;23119;51.842;-2.230;2022-11-20T09:59:07;14.10;;;1.48;;
37221;SDS011;23119;51.842;-2.230;2022-11-20T10:01:56;11.82;;;1.23;;
37221;SDS011;23119;51.842;-2.230;2022-11-20T10:04:24;7.40;;;1.08;;
37221;SDS011;23119;51.842;-2.230;2022-11-20T10:07:03;14.23;;;1.25;;
37221;SDS011;23119;51.842;-2.230;2022-11-20T10:09:40;10.93;;;1.42;;
37221;SDS011;23119;51.842;-2.230;2022-11-20T10:18:04;10.23;;;1.27;;
37221;SDS011;23119;51.842;-2.230;2022-11-20T10:29:39;18.50;;;1.47;;
37221;SDS011;23119;51.842;-2.230;2022-11-20T10:32:14;19.70;;;2.20;;
37221;SDS011;23119;51.842;-2.230;2022-11-20T10:37:18;13.60;;;1.33;;
37221;SDS011;23119;51.842;-2.230;2022-11-20T10:45:11;11.50;;;1.27;;
37221;SDS011;23119;51.842;-2.230;2022-11-20T10:47:50;14.25;;;1.73;;
37221;SDS011;23119;51.842;-2.230;2022-11-20T10:50:22;15.48;;;1.92;;
37221;SDS011;23119;51.842;-2.230;2022-11-20T10:52:56;12.25;;;1.00;;
37221;SDS011;23119;51.842;-2.230;2022-11-20T10:56:00;16.35;;;1.63;;
37221;SDS011;23119;51.842;-2.230;2022-11-20T11:01:21;19.50;;;1.70;;
37221;SDS011;23119;51.842;-2.230;2022-11-20T11:03:54;12.63;;;1.38;;
37221;SDS011;23119;51.842;-2.230;2022-11-20T11:09:00;21.00;;;2.17;;
37221;SDS011;23119;51.842;-2.230;2022-11-20T11:11:30;14.80;;;2.40;;
37221;SDS011;23119;51.842;-2.230;2022-11-20T11:14:11;12.70;;;0.82;;
37221;SDS011;23119;51.842;-2.230;2022-11-20T11:16:49;11.02;;;1.10;;
37221;SDS011;23119;51.842;-2.230;2022-11-20T11:19:24;11.82;;;1.02;;
37221;SDS011;23119;51.842;-2.230;2022-11-20T11:21:52;14.30;;;1.52;;
37221;SDS011;23119;51.842;-2.230;2022-11-20T11:26:57;14.57;;;1.05;;
37221;SDS011;23119;51.842;-2.230;2022-11-20T11:29:29;9.73;;;1.40;;
37221;SDS011;23119;51.842;-2.230;2022-11-20T11:32:07;9.18;;;0.70;;
37221;SDS011;23119;51.842;-2.230;2022-11-20T11:34:36;13.80;;;1.50;;
37221;SDS011;23119;51.842;-2.230;2022-11-20T11:37:04;15.48;;;2.13;;
37221;SDS011;23119;51.842;-2.230;2022-11-20T11:39:42;14.18;;;1.27;;
37221;SDS011;23119;51.842;-2.230;2022-11-20T11:42:19;12.70;;;1.00;;
37221;SDS011;23119;51.842;-2.230;2022-11-20T11:44:48;16.00;;;1.10;;
37221;SDS011;23119;51.842;-2.230;2022-11-20T11:47:33;15.82;;;1.00;;
37221;SDS011;23119;51.842;-2.230;2022-11-20T11:50:32;15.93;;;1.15;;
37221;SDS011;23119;51.842;-2.230;2022-11-20T11:53:17;12.20;;;1.13;;
37221;SDS011;23119;51.842;-2.230;2022-11-20T12:03:50;14.85;;;1.80;;
37221;SDS011;23119;51.842;-2.230;2022-11-20T12:06:37;14.55;;;1.25;;
37221;SDS011;23119;51.842;-2.230;2022-11-20T12:09:32;10.40;;;0.93;;
37221;SDS011;23119;51.842;-2.230;2022-11-20T12:15:20;15.88;;;1.10;;
37221;SDS011;23119;51.842;-2.230;2022-11-20T12:17:59;13.20;;;1.55;;
37221;SDS011;23119;51.842;-2.230;2022-11-20T12:20:39;14.05;;;1.35;;
37221;SDS011;23119;51.842;-2.230;2022-11-20T12:23:22;11.95;;;1.25;;
37221;SDS011;23119;51.842;-2.230;2022-11-20T12:26:15;22.60;;;1.60;;
37221;SDS011;23119;51.842;-2.230;2022-11-20T12:41:15;15.40;;;1.60;;
37221;SDS011;23119;51.842;-2.230;2022-11-20T12:44:08;14.48;;;1.30;;
37221;SDS011;23119;51.842;-2.230;2022-11-20T13:18:36;0.50;;;0.00;;
37221;SDS011;23119;51.842;-2.230;2022-11-20T13:29:44;0.10;;;0.00;;
37221;SDS011;23119;51.842;-2.230;2022-11-20T13:32:15;0.27;;;0.00;;
37221;SDS011;23119;51.842;-2.230;2022-11-20T13:34:52;0.05;;;0.00;;
37221;SDS011;23119;51.842;-2.230;2022-11-20T13:37:33;0.95;;;0.00;;
37221;SDS011;23119;51.842;-2.230;2022-11-20T13:45:58;1.38;;;0.00;;
37221;SDS011;23119;51.842;-2.230;2022-11-20T13:48:51;0.55;;;0.00;;
37221;SDS011;23119;51.842;-2.230;2022-11-20T13:51:28;0.52;;;0.00;;
37221;SDS011;23119;51.842;-2.230;2022-11-20T14:00:09;2.05;;;0.40;;
37221;SDS011;23119;51.842;-2.230;2022-11-20T14:02:50;1.25;;;0.22;;
37221;SDS011;23119;51.842;-2.230;2022-11-20T14:05:27;1.65;;;0.10;;
37221;SDS011;23119;51.842;-2.230;2022-11-20T14:07:56;0.57;;;0.00;;
37221;SDS011;23119;51.842;-2.230;2022-11-20T14:10:27;3.38;;;0.25;;
37221;SDS011;23119;51.842;-2.230;2022-11-20T14:12:55;0.65;;;0.10;;
37221;SDS011;23119;51.842;-2.230;2022-11-20T14:15:29;2.47;;;0.13;;
37221;SDS011;23119;51.842;-2.230;2022-11-20T14:17:59;0.93;;;0.25;;
37221;SDS011;23119;51.842;-2.230;2022-11-20T14:20:40;2.50;;;0.10;;
37221;SDS011;23119;51.842;-2.230;2022-11-20T14:23:11;3.47;;;0.40;;
37221;SDS011;23119;51.842;-2.230;2022-11-20T14:25:37;1.65;;;0.15;;
37221;SDS011;23119;51.842;-2.230;2022-11-20T14:28:11;2.47;;;0.30;;
37221;SDS011;23119;51.842;-2.230;2022-11-20T14:30:50;1.75;;;0.28;;
37221;SDS011;23119;51.842;-2.230;2022-11-20T14:33:17;2.33;;;0.30;;
37221;SDS011;23119;51.842;-2.230;2022-11-20T14:35:48;2.05;;;0.30;;
37221;SDS011;23119;51.842;-2.230;2022-11-20T14:38:25;3.22;;;0.40;;
37221;SDS011;23119;51.842;-2.230;2022-11-20T14:41:06;2.17;;;0.35;;
37221;SDS011;23119;51.842;-2.230;2022-11-20T14:43:35;1.65;;;0.32;;
37221;SDS011;23119;51.842;-2.230;2022-11-20T14:46:08;0.70;;;0.15;;
37221;SDS011;23119;51.842;-2.230;2022-11-20T14:48:44;1.67;;;0.30;;
37221;SDS011;23119;51.842;-2.230;2022-11-20T14:54:19;2.22;;;0.30;;
37221;SDS011;23119;51.842;-2.230;2022-11-20T14:56:57;1.73;;;0.30;;
37221;SDS011;23119;51.842;-2.230;2022-11-20T14:59:33;2.13;;;0.30;;
37221;SDS011;23119;51.842;-2.230;2022-11-20T15:02:06;1.80;;;0.30;;
37221;SDS011;23119;51.842;-2.230;2022-11-20T15:04:49;2.85;;;0.30;;
37221;SDS011;23119;51.842;-2.230;2022-11-20T15:07:25;3.20;;;0.32;;
37221;SDS011;23119;51.842;-2.230;2022-11-20T15:10:08;2.47;;;0.38;;
37221;SDS011;23119;51.842;-2.230;2022-11-20T15:12:55;4.65;;;0.43;;
37221;SDS011;23119;51.842;-2.230;2022-11-20T15:15:50;0.73;;;0.20;;
37221;SDS011;23119;51.842;-2.230;2022-11-20T15:18:23;2.22;;;0.30;;
37221;SDS011;23119;51.842;-2.230;2022-11-20T15:20:57;2.78;;;0.50;;
37221;SDS011;23119;51.842;-2.230;2022-11-20T15:23:26;2.88;;;0.30;;
37221;SDS011;23119;51.842;-2.230;2022-11-20T15:25:56;1.38;;;0.30;;
37221;SDS011;23119;51.842;-2.230;2022-11-20T15:28:39;1.75;;;0.38;;
37221;SDS011;23119;51.842;-2.230;2022-11-20T15:31:18;1.95;;;0.30;;
37221;SDS011;23119;51.842;-2.230;2022-11-20T15:33:48;1.55;;;0.20;;
37221;SDS011;23119;51.842;-2.230;2022-11-20T15:36:17;0.75;;;0.20;;
37221;SDS011;23119;51.842;-2.230;2022-11-20T15:38:48;1.30;;;0.20;;
37221;SDS011;23119;51.842;-2.230;2022-11-20T15:41:14;1.85;;;0.20;;
37221;SDS011;23119;51.842;-2.230;2022-11-20T15:43:43;1.45;;;0.20;;
37221;SDS011;23119;51.842;-2.230;2022-11-20T15:46:12;1.27;;;0.45;;
37221;SDS011;23119;51.842;-2.230;2022-11-20T15:48:55;2.75;;;0.20;;
37221;SDS011;23119;51.842;-2.230;2022-11-20T15:54:03;2.45;;;0.10;;
37221;SDS011;23119;51.842;-2.230;2022-11-20T15:56:55;5.20;;;0.20;;
37221;SDS011;23119;51.842;-2.230;2022-11-20T15:59:27;1.52;;;0.25;;
37221;SDS011;23119;51.842;-2.230;2022-11-20T16:01:56;1.58;;;0.20;;
37221;SDS011;23119;51.842;-2.230;2022-11-20T16:04:25;0.90;;;0.15;;
37221;SDS011;23119;51.842;-2.230;2022-11-20T16:06:54;1.95;;;0.10;;
37221;SDS011;23119;51.842;-2.230;2022-11-20T16:09:23;3.22;;;0.57;;
37221;SDS011;23119;51.842;-2.230;2022-11-20T16:11:52;1.50;;;0.20;;
37221;SDS011;23119;51.842;-2.230;2022-11-20T16:14:21;4.43;;;0.28;;
37221;SDS011;23119;51.842;-2.230;2022-11-20T16:17:09;3.33;;;0.25;;
37221;SDS011;23119;51.842;-2.230;2022-11-20T16:19:38;2.30;;;0.32;;
37221;SDS011;23119;51.842;-2.230;2022-11-20T16:22:03;3.47;;;0.50;;
37221;SDS011;23119;51.842;-2.230;2022-11-20T16:24:35;7.43;;;0.88;;
37221;SDS011;23119;51.842;-2.230;2022-11-20T16:27:03;1.80;;;0.55;;
37221;SDS011;23119;51.842;-2.230;2022-11-20T16:29:32;1.88;;;0.47;;
37221;SDS011;23119;51.842;-2.230;2022-11-20T16:31:57;5.72;;;1.15;;
37221;SDS011;23119;51.842;-2.230;2022-11-20T16:34:29;3.97;;;0.50;;
37221;SDS011;23119;51.842;-2.230;2022-11-20T16:36:55;2.55;;;0.35;;
37221;SDS011;23119;51.842;-2.230;2022-11-20T16:39:24;2.03;;;0.30;;
37221;SDS011;23119;51.842;-2.230;2022-11-20T16:41:58;3.15;;;0.30;;
37221;SDS011;23119;51.842;-2.230;2022-11-20T16:44:33;0.60;;;0.10;;
37221;SDS011;23119;51.842;-2.230;2022-11-20T16:47:01;4.50;;;0.20;;
37221;SDS011;23119;51.842;-2.230;2022-11-20T16:49:30;1.30;;;0.10;;
37221;SDS011;23119;51.842;-2.230;2022-11-20T16:51:58;1.40;;;0.10;;
37221;SDS011;23119;51.842;-2.230;2022-11-20T16:54:26;2.10;;;0.28;;
37221;SDS011;23119;51.842;-2.230;2022-11-20T16:56:57;29.40;;;11.30;;
37221;SDS011;23119;51.842;-2.230;2022-11-20T16:59:32;3.92;;;0.40;;
37221;SDS011;23119;51.842;-2.230;2022-11-20T17:02:02;4.63;;;0.28;;
37221;SDS011;23119;51.842;-2.230;2022-11-20T17:04:30;2.58;;;0.28;;
37221;SDS011;23119;51.842;-2.230;2022-11-20T17:06:56;4.05;;;0.30;;
37221;SDS011;23119;51.842;-2.230;2022-11-20T17:09:22;3.80;;;0.30;;